CheckWX is a tool to help pilots better visualize weather data.  It is not intended as a substitute for an official pre-flight weather briefing.

08:34:54 UTC

GVSV METAR
São Pedro Airport
São Pedro, Cape Verde
Current

35 mins ago

GVSV 190800Z 08006KT 9999 BKN022 SCT200 22/17 Q1016 NOSIG
Observed
May-19 @ 08:00 UTC
Wind
  • 080° at 6 KTS
Visibility
10,000+ meters
Flight Rules
MVFR
Cloud Levels
  • Broken at 2,200' AGL
  • Scattered at 20,000' AGL
Temperature
22°C / 72°F
Dewpoint
17°C / 63°F
Humidity
73%
Altimeter
30" Hg
Pressure
1015.92 hPa
Previous

2 hours ago

GVSV 190700Z 07005KT 9999 BKN022 21/17 Q1016 NOSIG
Observed
May-19 @ 07:00 UTC
Wind
  • 070° at 5 KTS
Visibility
10,000+ meters
Flight Rules
MVFR
Cloud Levels
  • Broken at 2,200' AGL
Temperature
21°C / 70°F
Dewpoint
17°C / 63°F
Humidity
78%
Altimeter
30" Hg
Pressure
1015.92 hPa
Previous

3 hours ago

GVSV 190600Z 07006KT 9999 BKN022 20/16 Q1015 NOSIG
Observed
May-19 @ 06:00 UTC
Wind
  • 070° at 6 KTS
Visibility
10,000+ meters
Flight Rules
MVFR
Cloud Levels
  • Broken at 2,200' AGL
Temperature
20°C / 68°F
Dewpoint
16°C / 61°F
Humidity
78%
Altimeter
29.97" Hg
Pressure
1014.92 hPa